Time;durP1;ratioP1;P1;durP2;ratioP2;P2;SDS_P1;SDS_P2;PMS_P1;PMS_P2;Temp;Humidity;BMP_temperature;BMP_pressure;BME280_temperature;BME280_humidity;BME280_pressure;Samples;Min_cycle;Max_cycle;Signal;HPM_P1;HPM_P2
2023/11/16 06:02:10;;;;;;;12.90;3.80;;;;;;;;;;5400556;23;20865;-79
2023/11/16 06:04:36;;;;;;;11.20;3.80;;;;;;;;;;4979150;28;20846;-79
2023/11/16 06:07:04;;;;;;;10.17;4.00;;;;;;;;;;4981080;28;20491;-79
2023/11/16 06:09:30;;;;;;;11.80;4.20;;;;;;;;;;4981175;28;20914;-79
2023/11/16 06:11:58;;;;;;;10.43;3.87;;;;;;;;;;4966607;28;20437;-79
2023/11/16 06:14:25;;;;;;;14.43;3.73;;;;;;;;;;5036777;23;20908;-73
2023/11/16 06:16:51;;;;;;;13.43;4.10;;;;;;;;;;4961413;28;20404;-74
2023/11/16 06:19:18;;;;;;;9.10;3.87;;;;;;;;;;4956693;28;20405;-74
2023/11/16 06:21:44;;;;;;;13.87;3.33;;;;;;;;;;4956314;28;20824;-74
2023/11/16 06:24:10;;;;;;;18.10;4.70;;;;;;;;;;4956084;28;20431;-74
2023/11/16 06:26:36;;;;;;;9.53;4.20;;;;;;;;;;4956334;29;20514;-74
2023/11/16 06:29:02;;;;;;;13.30;4.33;;;;;;;;;;4956514;29;20400;-73
2023/11/16 06:31:30;;;;;;;10.83;4.70;;;;;;;;;;4957493;29;20413;-72
2023/11/16 06:33:57;;;;;;;16.33;5.70;;;;;;;;;;4957703;28;20433;-72
2023/11/16 06:36:23;;;;;;;15.17;5.70;;;;;;;;;;4956838;29;20511;-72
2023/11/16 06:38:49;;;;;;;13.40;5.33;;;;;;;;;;4956990;29;20416;-73
2023/11/16 06:41:16;;;;;;;13.97;5.80;;;;;;;;;;4955969;29;20432;-74
2023/11/16 06:43:42;;;;;;;10.37;4.87;;;;;;;;;;4956074;28;20440;-71
2023/11/16 06:46:12;;;;;;;14.83;5.57;;;;;;;;;;4957874;29;20951;-72
2023/11/16 06:48:38;;;;;;;16.30;5.13;;;;;;;;;;4979615;28;20475;-72
2023/11/16 06:51:06;;;;;;;16.10;5.60;;;;;;;;;;4992717;28;20408;-74
2023/11/16 06:53:32;;;;;;;28.23;5.60;;;;;;;;;;4976224;28;20440;-73
2023/11/16 06:56:00;;;;;;;14.00;5.53;;;;;;;;;;4966455;29;20952;-72
2023/11/16 06:58:26;;;;;;;14.70;5.17;;;;;;;;;;4959620;28;20409;-73
2023/11/16 07:00:54;;;;;;;11.13;5.77;;;;;;;;;;4958436;29;20428;-74
2023/11/16 07:03:21;;;;;;;12.77;5.77;;;;;;;;;;4959427;28;20413;-74
2023/11/16 07:05:47;;;;;;;16.23;6.20;;;;;;;;;;4959066;28;20409;-74
2023/11/16 07:08:14;;;;;;;19.70;6.00;;;;;;;;;;4957251;28;20949;-73
2023/11/16 07:10:41;;;;;;;10.50;5.00;;;;;;;;;;4959943;28;20424;-73
2023/11/16 07:13:13;;;;;;;11.90;5.07;;;;;;;;;;4959902;29;20424;-73
2023/11/16 07:15:39;;;;;;;19.97;6.17;;;;;;;;;;4958077;28;20445;-73
2023/11/16 07:18:06;;;;;;;15.30;6.20;;;;;;;;;;4957712;29;20424;-74
2023/11/16 07:20:35;;;;;;;19.43;6.60;;;;;;;;;;4957655;29;20437;-72
2023/11/16 07:23:02;;;;;;;14.67;5.60;;;;;;;;;;4957441;28;20889;-72
2023/11/16 07:25:28;;;;;;;14.63;7.33;;;;;;;;;;4957551;28;20528;-72
2023/11/16 07:27:54;;;;;;;14.87;5.43;;;;;;;;;;4955447;28;20988;-72
2023/11/16 07:30:21;;;;;;;16.03;6.50;;;;;;;;;;4955157;29;20425;-72
2023/11/16 07:32:48;;;;;;;14.93;6.80;;;;;;;;;;4957103;28;20949;-73
2023/11/16 07:35:17;;;;;;;17.17;6.13;;;;;;;;;;4954978;28;20440;-72
2023/11/16 07:37:47;;;;;;;22.03;6.37;;;;;;;;;;4954984;29;20412;-73
2023/11/16 07:40:13;;;;;;;27.93;7.00;;;;;;;;;;4954912;28;20438;-73
2023/11/16 07:42:42;;;;;;;15.97;6.07;;;;;;;;;;4954718;29;20417;-73
2023/11/16 07:45:09;;;;;;;16.50;5.80;;;;;;;;;;4955137;28;20500;-73
2023/11/16 07:47:37;;;;;;;17.53;7.00;;;;;;;;;;4953593;29;20475;-73
2023/11/16 07:50:04;;;;;;;17.33;6.13;;;;;;;;;;4953968;29;20480;-73
2023/11/16 07:52:31;;;;;;;14.47;6.10;;;;;;;;;;4954735;28;20508;-73
2023/11/16 07:54:57;;;;;;;19.87;7.17;;;;;;;;;;4953046;28;20436;-73
2023/11/16 07:57:25;;;;;;;24.90;7.80;;;;;;;;;;4954694;29;20420;-73
2023/11/16 07:59:54;;;;;;;15.10;5.70;;;;;;;;;;4954802;28;20496;-73
2023/11/16 08:02:28;;;;;;;15.33;6.00;;;;;;;;;;4954543;28;20495;-74
2023/11/16 08:04:54;;;;;;;16.10;6.40;;;;;;;;;;4954217;28;20432;-74
2023/11/16 08:07:23;;;;;;;11.37;5.70;;;;;;;;;;4954400;28;20464;-73
2023/11/16 08:09:50;;;;;;;17.07;6.00;;;;;;;;;;4954405;28;20484;-73
2023/11/16 08:12:16;;;;;;;23.70;6.90;;;;;;;;;;4954359;28;20435;-74
2023/11/16 08:14:42;;;;;;;14.03;5.43;;;;;;;;;;4954063;28;20445;-74
2023/11/16 08:17:12;;;;;;;14.80;5.30;;;;;;;;;;4954124;29;20412;-73
2023/11/16 08:19:38;;;;;;;21.03;7.10;;;;;;;;;;4953888;28;20449;-73
2023/11/16 08:22:04;;;;;;;14.43;5.93;;;;;;;;;;4954205;29;20439;-73
2023/11/16 08:24:30;;;;;;;16.70;6.83;;;;;;;;;;4954210;28;20436;-73
2023/11/16 08:26:58;;;;;;;11.27;5.00;;;;;;;;;;4954377;29;20986;-73
2023/11/16 08:29:24;;;;;;;13.03;5.40;;;;;;;;;;4954197;28;20416;-73
2023/11/16 08:31:54;;;;;;;11.40;5.03;;;;;;;;;;4954269;28;20516;-72
2023/11/16 08:34:20;;;;;;;9.63;4.07;;;;;;;;;;4954167;28;20440;-73
2023/11/16 08:36:46;;;;;;;22.53;5.57;;;;;;;;;;4955657;29;20412;-72
2023/11/16 08:39:14;;;;;;;16.33;5.87;;;;;;;;;;4959730;29;20409;-73
2023/11/16 08:41:42;;;;;;;14.00;4.70;;;;;;;;;;4956107;28;20415;-74
2023/11/16 08:44:09;;;;;;;14.23;5.43;;;;;;;;;;4954948;28;20445;-73
2023/11/16 08:46:41;;;;;;;15.10;4.57;;;;;;;;;;4954668;28;20460;-73
2023/11/16 08:49:07;;;;;;;17.50;4.70;;;;;;;;;;4954444;28;20445;-73
2023/11/16 08:51:35;;;;;;;27.93;4.97;;;;;;;;;;4954539;28;20844;-72
2023/11/16 08:54:02;;;;;;;14.03;5.13;;;;;;;;;;4953572;28;20480;-73
2023/11/16 08:56:29;;;;;;;13.23;4.90;;;;;;;;;;4953836;28;20413;-72
2023/11/16 08:58:55;;;;;;;12.30;3.70;;;;;;;;;;4954237;28;20423;-73
2023/11/16 09:01:21;;;;;;;15.27;4.73;;;;;;;;;;4954022;28;20452;-73
2023/11/16 09:03:49;;;;;;;17.80;5.70;;;;;;;;;;4954194;28;20467;-73
2023/11/16 09:06:21;;;;;;;16.27;5.53;;;;;;;;;;4953756;28;21048;-73
2023/11/16 09:08:49;;;;;;;15.23;4.60;;;;;;;;;;4953850;28;20411;-73
2023/11/16 09:11:19;;;;;;;8.30;4.47;;;;;;;;;;4953465;28;20923;-74
2023/11/16 09:13:45;;;;;;;9.17;4.07;;;;;;;;;;4953154;28;20452;-73
2023/11/16 09:16:11;;;;;;;9.13;4.20;;;;;;;;;;4953532;28;20436;-73
2023/11/16 09:18:41;;;;;;;10.53;4.00;;;;;;;;;;4953615;29;20424;-72
2023/11/16 09:21:09;;;;;;;13.50;4.87;;;;;;;;;;4953462;28;20424;-74
2023/11/16 09:23:36;;;;;;;16.03;5.07;;;;;;;;;;4953421;28;20512;-73
2023/11/16 09:26:02;;;;;;;18.77;4.30;;;;;;;;;;4953394;28;20488;-72
2023/11/16 09:28:30;;;;;;;18.63;4.47;;;;;;;;;;4952031;29;20405;-73
2023/11/16 09:30:57;;;;;;;13.07;4.33;;;;;;;;;;4953915;28;20408;-72
2023/11/16 09:33:23;;;;;;;9.93;4.10;;;;;;;;;;4955656;28;20428;-72
2023/11/16 09:35:51;;;;;;;9.27;4.10;;;;;;;;;;4957024;29;20412;-73
2023/11/16 09:38:18;;;;;;;7.10;3.53;;;;;;;;;;4957182;28;20489;-73
2023/11/16 09:40:44;;;;;;;9.07;3.27;;;;;;;;;;4957188;28;20404;-73
2023/11/16 09:43:17;;;;;;;11.80;4.23;;;;;;;;;;4956743;28;20862;-73
2023/11/16 09:45:50;;;;;;;12.00;3.57;;;;;;;;;;4956907;29;20467;-73
2023/11/16 09:48:20;;;;;;;9.80;4.20;;;;;;;;;;4957038;28;20428;-73
2023/11/16 09:50:48;;;;;;;9.70;4.20;;;;;;;;;;4956859;28;20411;-73
2023/11/16 09:53:16;;;;;;;9.43;3.77;;;;;;;;;;4956547;28;20401;-73
2023/11/16 09:55:50;;;;;;;9.80;3.70;;;;;;;;;;4956750;28;20401;-73
2023/11/16 09:58:23;;;;;;;11.43;4.07;;;;;;;;;;4957057;28;20428;-73
2023/11/16 10:00:55;;;;;;;9.07;3.90;;;;;;;;;;4956725;28;20409;-73
2023/11/16 10:03:25;;;;;;;10.23;4.43;;;;;;;;;;4956265;28;20409;-73
2023/11/16 10:05:53;;;;;;;12.07;4.20;;;;;;;;;;4956547;28;20460;-73
2023/11/16 10:08:19;;;;;;;20.23;4.83;;;;;;;;;;4956617;28;20432;-74
2023/11/16 10:11:00;;;;;;;17.97;3.70;;;;;;;;;;4956661;29;20843;-73
2023/11/16 10:13:27;;;;;;;11.30;4.17;;;;;;;;;;4955362;28;20409;-73
2023/11/16 10:15:53;;;;;;;10.50;4.57;;;;;;;;;;4956663;29;20427;-75
2023/11/16 10:18:24;;;;;;;10.37;3.90;;;;;;;;;;4956602;29;20488;-73
2023/11/16 10:20:50;;;;;;;15.40;4.20;;;;;;;;;;4956550;28;20909;-73
2023/11/16 10:23:16;;;;;;;10.33;3.80;;;;;;;;;;4955996;28;20775;-73
2023/11/16 10:25:44;;;;;;;11.13;3.97;;;;;;;;;;4956307;28;20404;-73
2023/11/16 10:28:28;;;;;;;8.47;3.40;;;;;;;;;;4956495;28;20548;-73
2023/11/16 10:30:57;;;;;;;8.57;3.70;;;;;;;;;;4956328;29;20416;-73
2023/11/16 10:33:24;;;;;;;8.97;4.20;;;;;;;;;;4955800;28;20418;-73
2023/11/16 10:35:55;;;;;;;8.30;3.93;;;;;;;;;;4956096;29;20493;-73
2023/11/16 10:38:21;;;;;;;10.80;4.67;;;;;;;;;;4956069;28;20419;-73
2023/11/16 10:40:49;;;;;;;11.63;4.40;;;;;;;;;;4956055;29;20413;-73
2023/11/16 10:43:18;;;;;;;29.47;6.80;;;;;;;;;;4955094;28;20496;-73
2023/11/16 10:45:44;;;;;;;14.73;4.93;;;;;;;;;;4954395;29;20432;-73
2023/11/16 10:48:13;;;;;;;17.47;6.43;;;;;;;;;;4955947;29;20475;-73
2023/11/16 10:50:42;;;;;;;17.30;5.77;;;;;;;;;;4954517;29;20940;-73
2023/11/16 10:53:09;;;;;;;12.20;6.17;;;;;;;;;;4955886;28;20441;-73
2023/11/16 10:55:36;;;;;;;21.30;6.40;;;;;;;;;;4955732;28;20436;-73
2023/11/16 10:58:05;;;;;;;10.97;5.67;;;;;;;;;;4955582;28;20424;-73
2023/11/16 11:00:34;;;;;;;19.03;5.70;;;;;;;;;;4955778;29;20897;-73
2023/11/16 11:03:01;;;;;;;16.90;6.17;;;;;;;;;;4954157;29;20519;-73
2023/11/16 11:05:31;;;;;;;17.30;6.40;;;;;;;;;;4955629;28;20462;-73
2023/11/16 11:07:57;;;;;;;18.87;6.30;;;;;;;;;;4955360;29;20975;-73
2023/11/16 11:10:26;;;;;;;11.20;5.33;;;;;;;;;;4955439;29;20435;-73
2023/11/16 11:12:53;;;;;;;19.80;7.63;;;;;;;;;;4955604;28;20488;-73
2023/11/16 11:15:34;;;;;;;18.33;6.93;;;;;;;;;;4955304;28;20445;-73
2023/11/16 11:18:00;;;;;;;13.10;7.17;;;;;;;;;;4955324;28;20425;-73
2023/11/16 11:20:32;;;;;;;14.30;7.10;;;;;;;;;;4955533;28;20909;-73
2023/11/16 11:23:08;;;;;;;15.27;6.77;;;;;;;;;;4955425;28;20409;-73
2023/11/16 11:25:36;;;;;;;16.97;6.83;;;;;;;;;;4975690;28;20479;-73
2023/11/16 11:28:02;;;;;;;14.23;7.40;;;;;;;;;;4966116;28;20811;-73
2023/11/16 11:30:29;;;;;;;14.30;6.20;;;;;;;;;;4968345;29;20435;-73
2023/11/16 11:32:59;;;;;;;29.37;6.30;;;;;;;;;;4955784;29;20492;-73
2023/11/16 11:35:25;;;;;;;19.23;7.87;;;;;;;;;;4956228;28;20519;-73
2023/11/16 11:37:52;;;;;;;13.00;5.93;;;;;;;;;;4955386;29;20413;-73
2023/11/16 11:40:23;;;;;;;19.83;6.70;;;;;;;;;;4955250;28;20417;-73
2023/11/16 11:42:50;;;;;;;13.87;6.43;;;;;;;;;;4955051;29;20409;-73
2023/11/16 11:45:19;;;;;;;18.93;5.50;;;;;;;;;;4954520;28;20713;-73
2023/11/16 11:47:47;;;;;;;13.30;6.10;;;;;;;;;;4954901;28;20580;-73
2023/11/16 11:50:18;;;;;;;11.40;6.20;;;;;;;;;;4953326;29;20892;-73
2023/11/16 11:52:44;;;;;;;22.47;6.73;;;;;;;;;;4954666;28;20423;-73
2023/11/16 11:55:12;;;;;;;20.00;6.80;;;;;;;;;;4953550;28;20437;-73
2023/11/16 11:57:39;;;;;;;10.83;6.30;;;;;;;;;;4954849;28;20452;-73
2023/11/16 12:00:06;;;;;;;13.80;6.40;;;;;;;;;;4954451;28;20490;-73
2023/11/16 12:02:32;;;;;;;12.80;6.50;;;;;;;;;;4954607;28;20463;-73
2023/11/16 12:04:58;;;;;;;19.27;7.47;;;;;;;;;;4954335;28;20448;-73
2023/11/16 12:07:25;;;;;;;11.00;6.17;;;;;;;;;;4954751;29;20475;-73
2023/11/16 12:09:52;;;;;;;10.80;5.67;;;;;;;;;;4954580;28;20413;-73
2023/11/16 12:12:19;;;;;;;31.53;5.40;;;;;;;;;;4955164;29;20428;-73
2023/11/16 12:14:47;;;;;;;16.33;6.00;;;;;;;;;;5019337;23;20550;-73
2023/11/16 12:17:14;;;;;;;14.90;5.43;;;;;;;;;;4954422;29;20420;-73
2023/11/16 12:19:40;;;;;;;16.50;5.53;;;;;;;;;;4954907;28;20416;-72
2023/11/16 12:22:07;;;;;;;11.63;5.67;;;;;;;;;;4955392;28;20472;-72
2023/11/16 12:24:34;;;;;;;12.07;5.37;;;;;;;;;;4954918;28;20456;-73
2023/11/16 12:27:00;;;;;;;12.03;5.53;;;;;;;;;;4956129;28;20460;-72
2023/11/16 12:29:26;;;;;;;14.77;5.57;;;;;;;;;;4957063;29;20415;-72
2023/11/16 12:31:55;;;;;;;13.47;5.63;;;;;;;;;;4955096;28;20920;-72
2023/11/16 12:34:24;;;;;;;18.57;5.90;;;;;;;;;;4954078;28;20864;-72
2023/11/16 12:36:50;;;;;;;10.87;4.13;;;;;;;;;;4954851;28;20523;-73
2023/11/16 12:39:16;;;;;;;13.30;4.50;;;;;;;;;;4954426;29;20495;-73
2023/11/16 12:41:42;;;;;;;9.10;5.17;;;;;;;;;;4955999;29;20444;-74
2023/11/16 12:44:10;;;;;;;19.23;5.60;;;;;;;;;;4954612;28;20938;-72
2023/11/16 12:46:37;;;;;;;10.40;5.13;;;;;;;;;;4954166;28;20896;-73
2023/11/16 12:49:05;;;;;;;14.70;4.97;;;;;;;;;;4955544;28;20769;-72
2023/11/16 12:51:31;;;;;;;8.90;3.80;;;;;;;;;;4956270;28;20785;-72
2023/11/16 12:53:57;;;;;;;10.30;4.33;;;;;;;;;;4955049;28;20826;-72
2023/11/16 12:56:23;;;;;;;6.60;3.93;;;;;;;;;;4955425;29;20472;-73
2023/11/16 12:58:49;;;;;;;11.43;4.80;;;;;;;;;;4961938;29;20444;-73
2023/11/16 13:01:15;;;;;;;10.83;4.07;;;;;;;;;;4957005;29;20413;-72
2023/11/16 13:03:41;;;;;;;11.07;3.93;;;;;;;;;;4954427;28;20417;-72
2023/11/16 13:06:07;;;;;;;11.23;4.07;;;;;;;;;;4956641;28;20416;-72
2023/11/16 13:08:34;;;;;;;15.53;4.20;;;;;;;;;;4958554;29;20404;-72
2023/11/16 13:11:00;;;;;;;10.33;4.60;;;;;;;;;;4958231;28;20401;-72
2023/11/16 13:13:26;;;;;;;8.70;4.20;;;;;;;;;;4957679;29;20436;-73
2023/11/16 13:15:53;;;;;;;8.40;3.77;;;;;;;;;;4958032;28;20448;-72
2023/11/16 13:18:19;;;;;;;10.97;4.73;;;;;;;;;;4957764;29;20514;-73
2023/11/16 13:20:46;;;;;;;16.13;4.37;;;;;;;;;;4958065;29;20413;-72
2023/11/16 13:23:12;;;;;;;8.03;4.13;;;;;;;;;;4957757;28;20420;-72
2023/11/16 13:25:38;;;;;;;10.17;4.50;;;;;;;;;;4957659;28;20872;-73
2023/11/16 13:28:07;;;;;;;17.73;4.33;;;;;;;;;;4957146;29;20507;-73
2023/11/16 13:30:38;;;;;;;12.80;5.33;;;;;;;;;;4957511;28;20439;-73
2023/11/16 13:33:05;;;;;;;8.93;4.27;;;;;;;;;;4957559;28;20463;-73
2023/11/16 13:35:31;;;;;;;12.13;5.23;;;;;;;;;;4957465;28;20511;-72
2023/11/16 13:37:56;;;;;;;15.03;5.73;;;;;;;;;;4957543;29;20496;-74
2023/11/16 13:40:23;;;;;;;12.20;5.00;;;;;;;;;;4957756;29;20409;-74
2023/11/16 13:42:50;;;;;;;11.40;5.70;;;;;;;;;;4957207;29;20445;-73
2023/11/16 13:45:19;;;;;;;14.93;4.70;;;;;;;;;;4957219;28;20442;-74
2023/11/16 13:47:45;;;;;;;9.53;6.03;;;;;;;;;;4957285;28;20555;-74
2023/11/16 13:50:12;;;;;;;12.27;4.60;;;;;;;;;;4957349;29;20420;-73
2023/11/16 13:52:39;;;;;;;8.30;4.50;;;;;;;;;;4957098;29;20427;-73
2023/11/16 13:55:08;;;;;;;8.50;4.00;;;;;;;;;;4956934;28;20520;-73
2023/11/16 13:57:34;;;;;;;6.20;3.70;;;;;;;;;;4956993;29;20503;-73
2023/11/16 14:00:01;;;;;;;5.20;3.10;;;;;;;;;;4957309;29;20413;-73
2023/11/16 14:02:27;;;;;;;15.90;4.90;;;;;;;;;;4956852;28;20417;-73
2023/11/16 14:04:53;;;;;;;8.00;3.80;;;;;;;;;;4957422;28;20873;-74
2023/11/16 14:07:25;;;;;;;6.90;3.20;;;;;;;;;;4957358;29;20986;-74
2023/11/16 14:09:52;;;;;;;6.27;3.30;;;;;;;;;;4956842;29;20447;-73
2023/11/16 14:12:18;;;;;;;9.53;3.33;;;;;;;;;;4957275;28;20460;-73
2023/11/16 14:14:44;;;;;;;7.90;2.60;;;;;;;;;;4955242;28;20897;-73
2023/11/16 14:17:12;;;;;;;8.57;3.57;;;;;;;;;;4955547;28;20512;-72
2023/11/16 14:19:38;;;;;;;9.63;3.10;;;;;;;;;;4955599;29;20476;-73
2023/11/16 14:22:05;;;;;;;11.73;3.63;;;;;;;;;;4956610;29;20436;-73
2023/11/16 14:24:31;;;;;;;3.43;2.67;;;;;;;;;;4955053;28;20468;-74
2023/11/16 14:26:57;;;;;;;10.17;4.03;;;;;;;;;;4956633;29;20460;-74
2023/11/16 14:29:24;;;;;;;12.80;4.20;;;;;;;;;;4956658;29;20427;-72
2023/11/16 14:31:50;;;;;;;14.60;4.80;;;;;;;;;;4956863;28;20408;-74
2023/11/16 14:34:16;;;;;;;19.60;9.47;;;;;;;;;;4956254;28;20550;-74
2023/11/16 14:36:42;;;;;;;11.27;3.67;;;;;;;;;;4956504;29;20459;-73
2023/11/16 14:39:10;;;;;;;9.23;4.43;;;;;;;;;;4956182;29;20423;-73
2023/11/16 14:41:36;;;;;;;16.07;4.43;;;;;;;;;;4955735;28;20413;-74
2023/11/16 14:44:02;;;;;;;9.07;5.23;;;;;;;;;;4955911;28;20448;-76
2023/11/16 14:46:28;;;;;;;11.97;5.97;;;;;;;;;;4955172;29;20470;-77
2023/11/16 14:48:54;;;;;;;17.47;4.60;;;;;;;;;;4949746;29;20510;-78
2023/11/16 14:51:21;;;;;;;11.67;4.43;;;;;;;;;;4954703;29;20520;-79
2023/11/16 14:53:46;;;;;;;7.40;4.10;;;;;;;;;;4947124;29;20853;-77
2023/11/16 14:56:13;;;;;;;20.57;4.40;;;;;;;;;;4939017;29;20410;-76
2023/11/16 14:58:39;;;;;;;11.33;4.00;;;;;;;;;;4954162;29;20421;-78
2023/11/16 15:01:05;;;;;;;6.30;4.10;;;;;;;;;;4957635;29;20417;-76
2023/11/16 15:03:31;;;;;;;11.13;4.33;;;;;;;;;;4956549;29;20405;-72
2023/11/16 15:05:57;;;;;;;9.60;4.00;;;;;;;;;;4954181;28;20447;-72
2023/11/16 15:08:23;;;;;;;11.00;3.93;;;;;;;;;;4956767;29;20459;-73
2023/11/16 15:10:49;;;;;;;7.20;3.80;;;;;;;;;;4958047;28;20429;-73
2023/11/16 15:13:15;;;;;;;9.50;3.83;;;;;;;;;;4944041;29;20913;-73
2023/11/16 15:15:41;;;;;;;14.50;4.47;;;;;;;;;;4952334;29;20471;-73
2023/11/16 15:18:07;;;;;;;12.33;4.87;;;;;;;;;;4952008;29;20429;-74
2023/11/16 15:20:34;;;;;;;6.93;3.93;;;;;;;;;;4938777;29;20428;-73
2023/11/16 15:23:02;;;;;;;8.73;4.23;;;;;;;;;;4941638;29;20416;-73
2023/11/16 15:25:28;;;;;;;8.73;4.20;;;;;;;;;;4947418;29;20485;-73
2023/11/16 15:27:54;;;;;;;11.87;4.53;;;;;;;;;;4942825;29;20461;-74
2023/11/16 15:30:20;;;;;;;8.23;4.87;;;;;;;;;;4951768;29;20424;-74
2023/11/16 15:32:46;;;;;;;13.80;5.07;;;;;;;;;;4941793;29;20431;-73
2023/11/16 15:35:12;;;;;;;9.97;4.23;;;;;;;;;;4948418;29;20445;-74
2023/11/16 15:37:38;;;;;;;14.37;4.60;;;;;;;;;;4937535;29;20425;-74
2023/11/16 15:40:05;;;;;;;7.53;4.47;;;;;;;;;;4945977;29;20425;-73
2023/11/16 15:42:31;;;;;;;11.77;4.70;;;;;;;;;;4945024;29;20466;-73
2023/11/16 15:44:57;;;;;;;5.97;4.30;;;;;;;;;;4953315;29;20450;-72
2023/11/16 15:47:24;;;;;;;21.07;4.37;;;;;;;;;;4952427;29;20584;-73
2023/11/16 15:49:50;;;;;;;11.83;4.03;;;;;;;;;;4955412;29;20425;-75
2023/11/16 15:52:16;;;;;;;16.60;4.67;;;;;;;;;;4962554;29;20413;-73
2023/11/16 15:54:42;;;;;;;11.03;4.90;;;;;;;;;;4953760;29;20440;-73
2023/11/16 15:57:09;;;;;;;12.33;5.73;;;;;;;;;;4952162;29;20471;-73
2023/11/16 15:59:35;;;;;;;8.60;4.57;;;;;;;;;;4952949;29;20958;-73
2023/11/16 16:02:00;;;;;;;8.57;4.10;;;;;;;;;;4951708;29;20425;-72
2023/11/16 16:04:27;;;;;;;9.70;4.33;;;;;;;;;;4939922;29;20523;-72
2023/11/16 16:06:53;;;;;;;6.70;3.93;;;;;;;;;;4935742;29;20464;-76
2023/11/16 16:09:19;;;;;;;10.03;4.17;;;;;;;;;;4935764;29;20414;-73
2023/11/16 16:11:45;;;;;;;14.30;4.93;;;;;;;;;;4938856;29;20413;-74
2023/11/16 16:14:11;;;;;;;10.57;4.43;;;;;;;;;;4962316;29;20436;-75
2023/11/16 16:16:37;;;;;;;10.33;5.00;;;;;;;;;;4953186;29;20421;-75
2023/11/16 16:19:03;;;;;;;10.27;5.07;;;;;;;;;;4956689;29;20436;-74
2023/11/16 16:21:29;;;;;;;7.90;3.53;;;;;;;;;;4962952;29;20742;-74
2023/11/16 16:23:55;;;;;;;8.70;4.23;;;;;;;;;;4961150;29;20445;-74
2023/11/16 16:26:22;;;;;;;13.20;3.53;;;;;;;;;;4947285;29;20804;-74
2023/11/16 16:28:48;;;;;;;7.90;3.53;;;;;;;;;;4944227;29;20430;-73
2023/11/16 16:31:25;;;;;;;10.13;4.40;;;;;;;;;;4945649;29;20429;-73
2023/11/16 16:33:53;;;;;;;16.20;4.60;;;;;;;;;;4946233;29;20436;-73
2023/11/16 16:36:19;;;;;;;10.20;5.60;;;;;;;;;;4942089;29;20422;-73
2023/11/16 16:38:45;;;;;;;14.50;6.00;;;;;;;;;;4943256;29;20433;-76
2023/11/16 16:41:11;;;;;;;11.40;5.23;;;;;;;;;;4939693;29;20421;-75
2023/11/16 16:43:39;;;;;;;13.40;5.00;;;;;;;;;;4939647;29;20418;-75
2023/11/16 16:46:06;;;;;;;9.77;6.00;;;;;;;;;;4936935;29;20504;-74
2023/11/16 16:48:32;;;;;;;13.20;6.27;;;;;;;;;;4940312;29;20422;-74
2023/11/16 16:50:58;;;;;;;10.00;5.20;;;;;;;;;;4938929;29;20422;-73
2023/11/16 16:53:24;;;;;;;16.97;5.60;;;;;;;;;;4939127;29;20425;-74
2023/11/16 16:55:50;;;;;;;10.27;6.70;;;;;;;;;;4940443;29;20436;-74
2023/11/16 16:58:16;;;;;;;13.03;5.53;;;;;;;;;;4939151;29;20436;-74
2023/11/16 17:00:43;;;;;;;17.60;7.27;;;;;;;;;;4938581;29;20903;-74
2023/11/16 17:03:10;;;;;;;9.50;5.40;;;;;;;;;;4936006;29;20425;-74
2023/11/16 17:05:35;;;;;;;15.03;6.10;;;;;;;;;;4937412;29;20774;-74
2023/11/16 17:08:02;;;;;;;29.73;8.30;;;;;;;;;;4935474;29;20461;-74
2023/11/16 17:10:28;;;;;;;17.13;7.60;;;;;;;;;;4935011;29;20414;-75
2023/11/16 17:12:55;;;;;;;16.77;7.43;;;;;;;;;;4933741;29;20469;-73
2023/11/16 17:15:21;;;;;;;18.13;6.53;;;;;;;;;;4934634;29;20591;-75
2023/11/16 17:17:47;;;;;;;15.00;6.83;;;;;;;;;;4935514;29;20785;-73
2023/11/16 17:20:13;;;;;;;18.67;7.40;;;;;;;;;;4936572;29;20422;-75
2023/11/16 17:22:40;;;;;;;20.20;6.60;;;;;;;;;;4935613;29;20937;-75
2023/11/16 17:25:07;;;;;;;15.60;6.77;;;;;;;;;;4934319;29;20434;-73
2023/11/16 17:27:36;;;;;;;10.27;5.70;;;;;;;;;;4934466;29;20461;-74
2023/11/16 17:30:06;;;;;;;18.90;7.30;;;;;;;;;;4934484;29;20418;-74
2023/11/16 17:32:32;;;;;;;15.63;6.97;;;;;;;;;;4935199;29;20410;-74
2023/11/16 17:34:58;;;;;;;12.47;6.53;;;;;;;;;;4934402;29;20473;-74
2023/11/16 17:37:24;;;;;;;19.93;8.20;;;;;;;;;;4934744;29;20454;-74
2023/11/16 17:39:50;;;;;;;17.90;8.33;;;;;;;;;;4934996;29;20425;-74
2023/11/16 17:42:16;;;;;;;10.90;6.20;;;;;;;;;;4934722;29;20479;-74
2023/11/16 17:44:43;;;;;;;13.27;7.27;;;;;;;;;;4932710;29;20453;-74
2023/11/16 17:47:09;;;;;;;14.97;7.00;;;;;;;;;;4934487;29;20511;-74
2023/11/16 17:49:35;;;;;;;15.33;7.00;;;;;;;;;;4934398;29;20504;-74
2023/11/16 17:52:02;;;;;;;10.87;7.57;;;;;;;;;;4934954;29;20416;-74
2023/11/16 17:54:28;;;;;;;11.37;6.83;;;;;;;;;;4939146;29;20438;-74
2023/11/16 17:56:56;;;;;;;11.63;6.00;;;;;;;;;;4940939;28;20418;-74
2023/11/16 17:59:22;;;;;;;17.23;8.50;;;;;;;;;;4957950;28;20417;-74
2023/11/16 18:01:48;;;;;;;21.27;7.80;;;;;;;;;;4959132;29;20424;-73
2023/11/16 18:04:14;;;;;;;14.67;7.10;;;;;;;;;;4957595;28;20433;-74
2023/11/16 18:06:40;;;;;;;18.00;7.70;;;;;;;;;;4956657;29;20459;-74
2023/11/16 18:09:06;;;;;;;15.50;7.73;;;;;;;;;;4955709;29;20927;-72
2023/11/16 18:11:36;;;;;;;15.87;8.80;;;;;;;;;;4956686;29;20951;-74
2023/11/16 18:16:31;;;;;;;13.60;7.70;;;;;;;;;;4981596;28;20483;-79
2023/11/16 18:18:58;;;;;;;18.03;8.27;;;;;;;;;;4978435;28;20454;-78
2023/11/16 18:21:24;;;;;;;13.67;7.07;;;;;;;;;;4978303;28;20400;-78
2023/11/16 18:23:50;;;;;;;9.80;7.20;;;;;;;;;;4976749;28;20400;-78
2023/11/16 18:26:17;;;;;;;15.47;8.13;;;;;;;;;;4976146;28;20786;-77
2023/11/16 18:28:43;;;;;;;12.80;7.07;;;;;;;;;;4974755;28;21030;-77
2023/11/16 18:31:11;;;;;;;17.73;9.43;;;;;;;;;;4976016;28;20490;-78
2023/11/16 18:33:38;;;;;;;15.07;8.00;;;;;;;;;;4976235;28;20883;-77
2023/11/16 18:36:04;;;;;;;14.97;7.47;;;;;;;;;;4977352;28;20431;-77
2023/11/16 18:38:31;;;;;;;14.23;8.27;;;;;;;;;;4987894;28;20420;-77
2023/11/16 18:40:58;;;;;;;14.20;6.70;;;;;;;;;;5000673;28;20412;-78
2023/11/16 18:43:24;;;;;;;16.40;8.27;;;;;;;;;;4999838;28;20424;-77
2023/11/16 18:45:51;;;;;;;18.57;10.60;;;;;;;;;;4978183;28;20428;-77
2023/11/16 18:48:17;;;;;;;19.07;9.57;;;;;;;;;;4976404;28;20462;-77
2023/11/16 18:50:43;;;;;;;17.93;8.40;;;;;;;;;;4976327;28;20415;-77
2023/11/16 18:53:10;;;;;;;18.27;10.23;;;;;;;;;;4976208;28;20404;-78
2023/11/16 18:55:36;;;;;;;14.57;8.13;;;;;;;;;;4976423;28;20444;-78
2023/11/16 18:58:03;;;;;;;24.37;9.87;;;;;;;;;;4976176;28;20423;-78
2023/11/16 19:00:29;;;;;;;22.00;10.97;;;;;;;;;;4975462;28;20447;-78
2023/11/16 19:03:00;;;;;;;21.67;10.27;;;;;;;;;;4975496;28;20415;-78
2023/11/16 19:05:27;;;;;;;24.83;8.90;;;;;;;;;;4976284;28;20436;-78
2023/11/16 19:07:53;;;;;;;19.07;9.87;;;;;;;;;;4976008;28;20889;-78
2023/11/16 19:10:20;;;;;;;13.20;8.97;;;;;;;;;;4974516;28;20443;-78
2023/11/16 19:12:46;;;;;;;14.30;8.70;;;;;;;;;;4974693;28;20431;-78
2023/11/16 19:15:12;;;;;;;18.03;9.90;;;;;;;;;;4974932;28;20443;-78
2023/11/16 19:17:39;;;;;;;15.13;8.23;;;;;;;;;;4974203;28;20749;-78
2023/11/16 19:20:13;;;;;;;17.10;9.03;;;;;;;;;;4973759;28;20805;-78
2023/11/16 19:22:40;;;;;;;20.73;9.63;;;;;;;;;;4975103;28;20422;-78
2023/11/16 19:25:06;;;;;;;14.23;8.30;;;;;;;;;;4975145;28;20444;-78
2023/11/16 19:27:33;;;;;;;17.07;9.60;;;;;;;;;;4973831;28;20990;-78
2023/11/16 19:30:00;;;;;;;17.17;8.60;;;;;;;;;;4975444;28;20563;-78
2023/11/16 19:32:26;;;;;;;17.70;8.60;;;;;;;;;;4975880;28;20415;-78
2023/11/16 19:34:52;;;;;;;17.53;10.93;;;;;;;;;;4974932;28;20527;-78
2023/11/16 19:37:19;;;;;;;22.20;10.70;;;;;;;;;;4973937;28;20463;-78
2023/11/16 19:39:45;;;;;;;21.30;10.77;;;;;;;;;;4975002;28;20454;-78
2023/11/16 19:42:11;;;;;;;29.50;11.77;;;;;;;;;;4974858;28;20412;-78
2023/11/16 19:44:38;;;;;;;26.23;10.77;;;;;;;;;;4975308;28;20435;-78
2023/11/16 19:47:04;;;;;;;17.20;10.80;;;;;;;;;;4974603;28;20459;-78
2023/11/16 19:49:30;;;;;;;18.80;9.90;;;;;;;;;;4974627;28;20892;-78
2023/11/16 19:51:56;;;;;;;16.93;9.67;;;;;;;;;;4974742;28;20415;-78
2023/11/16 19:54:22;;;;;;;17.73;10.07;;;;;;;;;;4973561;28;20444;-79
2023/11/16 19:56:50;;;;;;;16.23;10.17;;;;;;;;;;4974940;28;20755;-78
2023/11/16 19:59:16;;;;;;;24.43;10.10;;;;;;;;;;4974500;28;20805;-79
2023/11/16 20:01:42;;;;;;;20.63;8.77;;;;;;;;;;4974688;28;20439;-78
2023/11/16 20:04:12;;;;;;;18.70;7.90;;;;;;;;;;4974597;28;20423;-78
2023/11/16 20:06:39;;;;;;;21.33;10.73;;;;;;;;;;4973393;28;20462;-79
2023/11/16 20:09:08;;;;;;;18.67;9.23;;;;;;;;;;4974977;28;20966;-78
2023/11/16 20:11:34;;;;;;;17.47;10.60;;;;;;;;;;4974751;28;20762;-78
2023/11/16 20:13:59;;;;;;;14.30;9.57;;;;;;;;;;4974442;28;20431;-78
2023/11/16 20:16:25;;;;;;;11.33;7.30;;;;;;;;;;4973632;28;20523;-78
2023/11/16 20:18:51;;;;;;;12.70;7.30;;;;;;;;;;4973938;28;20415;-78
2023/11/16 20:21:17;;;;;;;14.33;8.63;;;;;;;;;;4974022;28;20796;-78
2023/11/16 20:23:44;;;;;;;17.30;8.70;;;;;;;;;;4972369;28;20412;-78
2023/11/16 20:26:11;;;;;;;16.60;8.63;;;;;;;;;;4972580;28;20463;-78
2023/11/16 20:28:37;;;;;;;14.57;8.93;;;;;;;;;;4972859;28;20427;-78
2023/11/16 20:31:03;;;;;;;16.03;8.20;;;;;;;;;;4973559;28;20503;-78
2023/11/16 20:33:30;;;;;;;16.90;8.87;;;;;;;;;;4973392;28;20790;-76